Terminal Aerodrome Forecast
Issued by NWS Melbourne, FL

Home | Current Version | Previous Version | Text Only | Print | Product List | Glossary On
Versions: 1 2 3 4 5 6 7 8 9 10 11 12 13 14 15 16 17 18 19 20 21 22 23 24 25
000
FTUS42 KMLB 300900 AAA
TAFMCO
TAF AMD
KMCO 300906Z 3009/3106 27004KT P6SM FEW070 SCT250
     FM301400 VRB04KT P6SM SCT250
     FM301900 27006KT P6SM SCT050 SCT250
     FM302200 12007KT P6SM SCT060 SCT250
     FM310200 VRB04KT P6SM SCT250=

USA.gov is the U.S. government's official web portal to all federal, state and local government web resources and services.